Terminal Aerodrome Forecast
Issued by NWS Louisville, KY

Home | Current Version | Previous Version | Text Only | Print | Product List | Glossary On
Versions: 1 2 3 4 5 6 7 8 9 10 11 12 13 14 15 16 17 18 19 20
000
FTUS43 KLMK 021900 AAA
TAFBWG
TAF AMD
KBWG 021959Z 0220/0318 04006KT P6SM BKN018
     FM022100 VRB04KT P6SM BKN025
     FM030000 VRB03KT P6SM BKN040
     FM030900 00000KT 4SM BR SCT005
     FM031300 05004KT P6SM SCT015=

USA.gov is the U.S. government's official web portal to all federal, state and local government web resources and services.